createdAt,value
2023-01-29T00:01:47.759Z,8.50
2023-01-29T00:04:14.509Z,9.25
2023-01-29T00:06:40.944Z,8.37
2023-01-29T00:09:07.397Z,9.27
2023-01-29T00:11:33.794Z,8.90
2023-01-29T00:14:00.187Z,8.63
2023-01-29T00:16:26.628Z,8.65
2023-01-29T00:18:53.130Z,9.20
2023-01-29T00:21:24.640Z,8.68
2023-01-29T00:23:51.300Z,8.65
2023-01-29T00:26:17.817Z,9.27
2023-01-29T00:28:44.530Z,9.30
2023-01-29T00:31:13.180Z,8.87
2023-01-29T00:33:40.295Z,9.82
2023-01-29T00:36:09.399Z,9.27
2023-01-29T00:38:37.237Z,9.77
2023-01-29T00:41:26.799Z,9.77
2023-01-29T00:44:11.643Z,9.10
2023-01-29T00:46:38.213Z,9.18
2023-01-29T00:49:06.722Z,9.63
2023-01-29T00:51:33.085Z,9.05
2023-01-29T00:53:59.845Z,9.52
2023-01-29T00:56:30.231Z,8.97
2023-01-29T00:58:57.102Z,9.90
2023-01-29T01:01:42.748Z,9.30
2023-01-29T01:04:10.997Z,7.97
2023-01-29T01:06:38.525Z,8.20
2023-01-29T01:09:24.440Z,8.20
2023-01-29T01:11:51.768Z,9.43
2023-01-29T01:14:20.117Z,9.20
2023-01-29T01:16:47.889Z,8.80
2023-01-29T01:19:15.358Z,8.93
2023-01-29T01:21:45.353Z,8.47
2023-01-29T01:24:13.157Z,8.90
2023-01-29T01:26:39.816Z,8.77
2023-01-29T01:29:06.850Z,7.90
2023-01-29T01:31:33.459Z,8.40
2023-01-29T01:33:59.945Z,8.40
2023-01-29T01:36:26.352Z,8.60
2023-01-29T01:38:52.828Z,8.70
2023-01-29T01:41:21.808Z,8.80
2023-01-29T01:43:58.498Z,7.95
2023-01-29T01:46:28.540Z,9.10
2023-01-29T01:49:00.487Z,8.20
2023-01-29T01:51:28.936Z,8.70
2023-01-29T01:54:01.969Z,8.55
2023-01-29T01:56:38.359Z,8.05
2023-01-29T01:59:09.645Z,7.33
2023-01-29T02:01:38.241Z,8.85
2023-01-29T02:04:26.499Z,8.48
2023-01-29T02:07:12.926Z,7.75
2023-01-29T02:09:46.242Z,8.95
2023-01-29T02:12:15.929Z,7.70
2023-01-29T02:14:43.524Z,8.10
2023-01-29T02:17:14.210Z,8.35
2023-01-29T02:20:02.332Z,8.25
2023-01-29T02:22:55.066Z,9.13
2023-01-29T02:25:40.539Z,7.63
2023-01-29T02:28:14.098Z,8.68
2023-01-29T02:30:47.522Z,9.20
2023-01-29T02:33:26.289Z,8.30
2023-01-29T02:36:04.602Z,8.07
2023-01-29T02:38:46.655Z,8.17
2023-01-29T02:41:26.521Z,8.57
2023-01-29T02:43:57.388Z,8.93
2023-01-29T02:46:37.255Z,8.02
2023-01-29T02:49:06.643Z,7.35
2023-01-29T02:52:12.172Z,8.80
2023-01-29T02:54:47.395Z,7.90
2023-01-29T02:57:21.796Z,8.80
2023-01-29T02:59:58.542Z,8.18
2023-01-29T03:02:33.380Z,8.27
2023-01-29T03:05:05.990Z,8.73
2023-01-29T03:07:42.301Z,9.65
2023-01-29T03:10:18.131Z,8.90
2023-01-29T03:12:49.854Z,9.30
2023-01-29T03:15:25.007Z,9.77
2023-01-29T03:17:57.343Z,8.93
2023-01-29T03:20:32.000Z,8.73
2023-01-29T03:23:06.357Z,9.18
2023-01-29T03:25:54.631Z,9.98
2023-01-29T03:28:40.636Z,10.10
2023-01-29T03:31:30.557Z,9.93
2023-01-29T03:34:05.274Z,9.85
2023-01-29T03:36:45.543Z,10.02
2023-01-29T03:39:13.743Z,10.38
2023-01-29T03:41:53.576Z,10.52
2023-01-29T03:44:33.585Z,10.00
2023-01-29T03:47:17.132Z,9.68
2023-01-29T03:49:55.429Z,10.60
2023-01-29T03:52:28.925Z,9.75
2023-01-29T03:55:42.979Z,10.88
2023-01-29T03:58:23.664Z,10.50
2023-01-29T04:00:56.896Z,10.13
2023-01-29T04:03:32.946Z,10.68
2023-01-29T04:06:05.451Z,10.95
2023-01-29T04:08:35.785Z,11.23
2023-01-29T04:11:10.294Z,11.17
2023-01-29T04:13:38.031Z,10.43
2023-01-29T04:16:08.265Z,9.70
2023-01-29T04:18:34.767Z,10.18
2023-01-29T04:21:01.347Z,11.23
2023-01-29T04:23:27.984Z,11.17
2023-01-29T04:26:07.177Z,10.95
2023-01-29T04:29:10.818Z,11.20
2023-01-29T04:31:51.598Z,10.55
2023-01-29T04:34:43.949Z,10.90
2023-01-29T04:37:22.965Z,10.30
2023-01-29T04:39:59.818Z,11.25
2023-01-29T04:42:57.983Z,11.00
2023-01-29T04:45:43.545Z,11.10
2023-01-29T04:48:23.201Z,10.85
2023-01-29T04:50:59.510Z,10.27
2023-01-29T04:53:52.553Z,10.55
2023-01-29T04:56:46.813Z,10.50
2023-01-29T04:59:19.243Z,10.02
2023-01-29T05:01:47.176Z,10.85
2023-01-29T05:04:16.465Z,10.50
2023-01-29T05:06:46.513Z,10.82
2023-01-29T05:09:15.703Z,10.27
2023-01-29T05:11:44.245Z,11.05
2023-01-29T05:14:14.677Z,12.05
2023-01-29T05:16:49.467Z,11.30
2023-01-29T05:19:17.147Z,11.18
2023-01-29T05:21:47.429Z,10.90
2023-01-29T05:24:19.516Z,11.60
2023-01-29T05:27:07.704Z,11.23
2023-01-29T05:29:34.248Z,11.83
2023-01-29T05:32:01.198Z,11.90
2023-01-29T05:34:27.805Z,10.90
2023-01-29T05:36:54.196Z,11.65
2023-01-29T05:39:21.114Z,10.77
2023-01-29T05:41:47.623Z,12.20
2023-01-29T05:44:13.978Z,11.20
2023-01-29T05:46:40.424Z,11.88
2023-01-29T05:49:06.791Z,11.02
2023-01-29T05:51:33.139Z,11.88
2023-01-29T05:53:59.531Z,11.77
2023-01-29T05:56:25.994Z,11.73
2023-01-29T05:58:52.749Z,11.63
2023-01-29T06:01:22.508Z,11.82
2023-01-29T06:03:49.071Z,10.88
2023-01-29T06:06:16.129Z,11.23
2023-01-29T06:08:43.134Z,11.73
2023-01-29T06:11:11.965Z,11.77
2023-01-29T06:13:38.686Z,11.38
2023-01-29T06:16:06.834Z,11.50
2023-01-29T06:18:33.711Z,11.93
2023-01-29T06:21:02.571Z,11.18
2023-01-29T06:23:29.811Z,11.07
2023-01-29T06:26:04.714Z,10.90
2023-01-29T06:28:31.175Z,10.38
2023-01-29T06:31:21.054Z,10.97
2023-01-29T06:33:48.983Z,11.13
2023-01-29T06:36:15.321Z,11.18
2023-01-29T06:38:41.664Z,11.82
2023-01-29T06:41:12.663Z,10.43
2023-01-29T06:43:39.699Z,10.03
2023-01-29T06:46:08.360Z,11.20
2023-01-29T06:48:35.206Z,10.00
2023-01-29T06:51:06.308Z,10.27
2023-01-29T06:53:33.656Z,10.48
2023-01-29T06:56:00.075Z,10.60
2023-01-29T06:58:26.642Z,10.50
2023-01-29T07:00:53.100Z,10.45
2023-01-29T07:03:19.672Z,9.70
2023-01-29T07:05:52.957Z,11.02
2023-01-29T07:08:22.536Z,9.57
2023-01-29T07:10:49.864Z,10.13
2023-01-29T07:13:16.583Z,10.25
2023-01-29T07:15:44.401Z,10.30
2023-01-29T07:18:14.201Z,10.38
2023-01-29T07:20:41.679Z,10.30
2023-01-29T07:23:12.869Z,11.18
2023-01-29T07:25:40.135Z,10.65
2023-01-29T07:28:07.056Z,10.15
2023-01-29T07:30:33.975Z,11.07
2023-01-29T07:33:08.756Z,10.10
2023-01-29T07:35:40.052Z,9.93
2023-01-29T07:38:07.605Z,10.13
2023-01-29T07:40:34.285Z,10.48
2023-01-29T07:43:02.267Z,9.95
2023-01-29T07:45:29.986Z,10.23
2023-01-29T07:47:57.261Z,9.48
2023-01-29T07:50:25.408Z,10.73
2023-01-29T07:52:52.172Z,10.55
2023-01-29T07:55:18.581Z,10.18
2023-01-29T07:57:44.969Z,10.50
2023-01-29T08:00:12.725Z,9.68
2023-01-29T08:02:39.907Z,9.80
2023-01-29T08:05:06.636Z,11.70
2023-01-29T08:07:33.047Z,9.68
2023-01-29T08:09:59.428Z,10.13
2023-01-29T08:12:25.884Z,10.27
2023-01-29T08:14:52.256Z,10.20
2023-01-29T08:17:18.649Z,9.40
2023-01-29T08:19:45.033Z,9.68
2023-01-29T08:22:11.394Z,9.07
2023-01-29T08:24:53.253Z,9.63
2023-01-29T08:27:24.206Z,9.63
2023-01-29T08:29:50.592Z,9.55
2023-01-29T08:32:17.026Z,9.15
2023-01-29T08:34:43.389Z,9.53
2023-01-29T08:37:09.767Z,10.27
2023-01-29T08:39:36.160Z,9.27
2023-01-29T08:42:02.497Z,10.00
2023-01-29T08:44:29.376Z,10.40
2023-01-29T08:46:55.790Z,10.17
2023-01-29T08:49:22.197Z,9.93
2023-01-29T08:51:48.636Z,9.38
2023-01-29T08:54:15.070Z,9.35
2023-01-29T08:56:41.435Z,9.45
2023-01-29T08:59:07.840Z,9.57
2023-01-29T09:01:34.284Z,9.55
2023-01-29T09:04:00.654Z,9.70
2023-01-29T09:06:27.069Z,9.50
2023-01-29T09:08:53.479Z,10.35
2023-01-29T09:11:19.856Z,10.40
2023-01-29T09:13:46.202Z,10.25
2023-01-29T09:16:12.707Z,9.05
2023-01-29T09:18:39.050Z,9.45
2023-01-29T09:21:05.767Z,9.32
2023-01-29T09:23:32.795Z,9.60
2023-01-29T09:25:59.300Z,9.30
2023-01-29T09:28:26.019Z,9.95
2023-01-29T09:30:52.593Z,9.50
2023-01-29T09:33:19.184Z,9.70
2023-01-29T09:35:47.023Z,9.70
2023-01-29T09:38:14.181Z,9.50
2023-01-29T09:41:06.894Z,9.57
2023-01-29T09:43:45.882Z,10.00
2023-01-29T09:46:43.292Z,9.98
2023-01-29T09:49:41.665Z,9.73
2023-01-29T09:52:20.403Z,9.48
2023-01-29T09:55:01.932Z,9.20
2023-01-29T09:57:38.836Z,10.52
2023-01-29T10:00:05.957Z,10.45
2023-01-29T10:03:02.031Z,10.00
2023-01-29T10:05:40.806Z,10.02
2023-01-29T10:08:29.577Z,8.88
2023-01-29T10:11:23.939Z,9.98
2023-01-29T10:14:14.771Z,9.70
2023-01-29T10:17:12.246Z,9.23
2023-01-29T10:19:48.961Z,10.32
2023-01-29T10:22:41.961Z,9.93
2023-01-29T10:25:21.351Z,10.40
2023-01-29T10:27:51.829Z,10.40
2023-01-29T10:30:21.837Z,10.10
2023-01-29T10:32:50.038Z,9.57
2023-01-29T10:35:28.421Z,9.98
2023-01-29T10:37:58.945Z,10.30
2023-01-29T10:40:43.842Z,11.00
2023-01-29T10:43:19.586Z,9.83
2023-01-29T10:45:57.240Z,9.50
2023-01-29T10:48:36.912Z,9.50
2023-01-29T10:52:00.588Z,10.48
2023-01-29T10:55:03.093Z,10.32
2023-01-29T10:57:59.221Z,9.90
2023-01-29T11:00:30.449Z,10.65
2023-01-29T11:02:57.044Z,10.88
2023-01-29T11:05:34.312Z,10.38
2023-01-29T11:08:07.184Z,11.18
2023-01-29T11:10:41.664Z,11.30
2023-01-29T11:13:14.041Z,10.30
2023-01-29T11:15:40.514Z,11.27
2023-01-29T11:18:15.657Z,11.23
2023-01-29T11:20:44.477Z,10.50
2023-01-29T11:23:26.941Z,11.10
2023-01-29T11:25:55.534Z,11.13
2023-01-29T11:28:42.171Z,10.88
2023-01-29T11:31:35.128Z,11.65
2023-01-29T11:34:16.576Z,12.23
2023-01-29T11:36:44.867Z,12.10
2023-01-29T11:39:20.043Z,12.38
2023-01-29T11:41:49.364Z,11.57
2023-01-29T11:44:39.732Z,11.65
2023-01-29T11:47:27.470Z,12.15
2023-01-29T11:50:00.600Z,11.73
2023-01-29T11:52:36.314Z,12.48
2023-01-29T11:55:15.888Z,11.48
2023-01-29T11:57:46.480Z,12.43
2023-01-29T12:00:25.359Z,12.13
2023-01-29T12:03:01.387Z,12.40
2023-01-29T12:05:27.951Z,12.15
2023-01-29T12:08:00.379Z,12.93
2023-01-29T12:10:37.141Z,12.13
2023-01-29T12:13:19.778Z,12.02
2023-01-29T12:15:47.972Z,12.70
2023-01-29T12:18:30.406Z,13.18
2023-01-29T12:21:03.065Z,12.65
2023-01-29T12:23:56.121Z,13.10
2023-01-29T12:26:33.759Z,12.88
2023-01-29T12:29:35.637Z,12.57
2023-01-29T12:32:23.825Z,11.95
2023-01-29T12:35:12.637Z,13.88
2023-01-29T12:38:03.096Z,13.45
2023-01-29T12:40:34.139Z,12.30
2023-01-29T12:43:07.058Z,13.20
2023-01-29T12:45:36.541Z,13.43
2023-01-29T12:48:08.637Z,13.55
2023-01-29T12:50:37.555Z,13.57
2023-01-29T12:53:25.675Z,13.88
2023-01-29T12:56:02.892Z,12.60
2023-01-29T12:58:35.148Z,12.82
2023-01-29T13:01:10.921Z,14.05
2023-01-29T13:04:01.490Z,13.50
2023-01-29T13:06:33.508Z,12.77
2023-01-29T13:09:11.980Z,13.93
2023-01-29T13:12:00.489Z,13.07
2023-01-29T13:14:42.282Z,13.88
2023-01-29T13:17:18.387Z,12.50
2023-01-29T13:19:49.513Z,14.05
2023-01-29T13:22:23.129Z,13.43
2023-01-29T13:25:03.613Z,13.20
2023-01-29T13:27:33.815Z,13.88
2023-01-29T13:30:00.956Z,13.30
2023-01-29T13:32:30.065Z,14.68
2023-01-29T13:35:13.443Z,13.40
2023-01-29T13:37:50.013Z,13.75
2023-01-29T13:40:24.325Z,14.45
2023-01-29T13:42:54.054Z,13.10
2023-01-29T13:45:22.040Z,11.82
2023-01-29T13:47:49.952Z,13.23
2023-01-29T13:50:42.401Z,12.93
2023-01-29T13:53:21.725Z,12.80
2023-01-29T13:55:48.116Z,13.35
2023-01-29T13:58:43.320Z,13.40
2023-01-29T14:01:09.767Z,12.00
2023-01-29T14:04:06.142Z,13.05
2023-01-29T14:06:40.383Z,12.75
2023-01-29T14:09:31.033Z,12.52
2023-01-29T14:11:57.546Z,12.88
2023-01-29T14:14:49.084Z,10.97
2023-01-29T14:17:17.320Z,12.35
2023-01-29T14:19:59.183Z,13.00
2023-01-29T14:22:32.085Z,12.32
2023-01-29T14:25:03.377Z,11.50
2023-01-29T14:27:30.903Z,12.37
2023-01-29T14:30:18.827Z,12.25
2023-01-29T14:32:51.425Z,12.10
2023-01-29T14:35:22.840Z,11.93
2023-01-29T14:37:57.505Z,12.40
2023-01-29T14:40:26.022Z,11.90
2023-01-29T14:42:55.147Z,11.88
2023-01-29T14:45:32.432Z,12.20
2023-01-29T14:48:11.035Z,12.07
2023-01-29T14:50:37.778Z,11.77
2023-01-29T14:53:19.550Z,11.67
2023-01-29T14:56:10.423Z,11.55
2023-01-29T14:58:56.254Z,12.50
2023-01-29T15:01:39.517Z,11.30
2023-01-29T15:04:15.975Z,12.18
2023-01-29T15:06:52.965Z,11.83
2023-01-29T15:09:42.678Z,11.68
2023-01-29T15:12:26.452Z,11.75
2023-01-29T15:15:05.840Z,10.38
2023-01-29T15:18:16.116Z,11.75
2023-01-29T15:20:43.441Z,11.60
2023-01-29T15:23:31.746Z,11.40
2023-01-29T15:26:01.940Z,11.52
2023-01-29T15:28:33.387Z,10.70
2023-01-29T15:31:02.338Z,12.00
2023-01-29T15:33:28.992Z,11.17
2023-01-29T15:36:06.929Z,11.50
2023-01-29T15:38:34.310Z,10.23
2023-01-29T15:41:03.615Z,11.65
2023-01-29T15:43:37.100Z,12.02
2023-01-29T15:46:14.394Z,12.33
2023-01-29T15:48:43.460Z,11.27
2023-01-29T15:51:15.969Z,11.00
2023-01-29T15:54:15.773Z,10.98
2023-01-29T15:56:51.688Z,11.00
2023-01-29T15:59:22.326Z,11.33
2023-01-29T16:01:48.807Z,10.80
2023-01-29T16:04:20.898Z,11.88
2023-01-29T16:06:47.995Z,11.52
2023-01-29T16:09:26.199Z,10.93
2023-01-29T16:11:57.399Z,10.30
2023-01-29T16:14:25.676Z,11.40
2023-01-29T16:16:52.921Z,11.48
2023-01-29T16:19:27.890Z,11.60
2023-01-29T16:22:03.543Z,10.98
2023-01-29T16:24:32.281Z,11.50
2023-01-29T16:27:10.963Z,11.45
2023-01-29T16:29:38.910Z,11.18
2023-01-29T16:32:06.172Z,10.52
2023-01-29T16:34:37.649Z,10.13
2023-01-29T16:37:07.315Z,10.80
2023-01-29T16:39:38.253Z,10.27
2023-01-29T16:42:12.193Z,10.52
2023-01-29T16:44:40.243Z,10.80
2023-01-29T16:47:15.343Z,11.10
2023-01-29T16:49:49.735Z,11.60
2023-01-29T16:52:31.283Z,10.95
2023-01-29T16:55:15.281Z,11.30
2023-01-29T16:57:44.109Z,10.98
2023-01-29T17:00:20.821Z,11.63
2023-01-29T17:02:50.564Z,11.43
2023-01-29T17:05:26.164Z,12.48
2023-01-29T17:07:55.459Z,11.80
2023-01-29T17:10:22.039Z,13.05
2023-01-29T17:12:55.640Z,11.90
2023-01-29T17:15:42.962Z,11.37
2023-01-29T17:18:20.095Z,12.30
2023-01-29T17:20:47.348Z,12.68
2023-01-29T17:23:13.870Z,12.50
2023-01-29T17:25:40.948Z,13.00
2023-01-29T17:28:07.643Z,11.83
2023-01-29T17:30:37.132Z,12.23
2023-01-29T17:33:17.875Z,12.75
2023-01-29T17:35:45.417Z,13.20
2023-01-29T17:38:24.965Z,11.82
2023-01-29T17:41:11.752Z,13.43
2023-01-29T17:43:38.276Z,12.23
2023-01-29T17:46:04.711Z,12.63
2023-01-29T17:48:31.825Z,12.55
2023-01-29T17:51:04.436Z,14.00
2023-01-29T17:53:45.358Z,12.47
2023-01-29T17:56:17.741Z,12.07
2023-01-29T17:58:44.560Z,13.30
2023-01-29T18:01:10.966Z,12.23
2023-01-29T18:03:37.386Z,12.70
2023-01-29T18:06:07.683Z,12.30
2023-01-29T18:08:36.797Z,13.02
2023-01-29T18:11:03.342Z,13.02
2023-01-29T18:13:29.744Z,12.52
2023-01-29T18:15:56.110Z,13.60
2023-01-29T18:18:24.049Z,11.97
2023-01-29T18:20:50.976Z,13.30
2023-01-29T18:23:17.546Z,12.40
2023-01-29T18:25:44.798Z,13.18
2023-01-29T18:28:19.202Z,12.85
2023-01-29T18:30:47.236Z,12.73
2023-01-29T18:33:14.290Z,12.43
2023-01-29T18:35:40.761Z,14.23
2023-01-29T18:38:07.112Z,12.32
2023-01-29T18:40:33.514Z,14.57
2023-01-29T18:43:00.873Z,13.53
2023-01-29T18:45:28.601Z,11.95
2023-01-29T18:47:55.605Z,12.60
2023-01-29T18:50:26.207Z,12.25
2023-01-29T18:52:53.619Z,12.43
2023-01-29T18:55:20.847Z,12.87
2023-01-29T18:58:24.929Z,12.55
2023-01-29T19:00:33.879Z,12.75
2023-01-29T19:03:00.741Z,13.02
2023-01-29T19:05:27.214Z,12.38
2023-01-29T19:07:53.751Z,13.07
2023-01-29T19:10:20.179Z,13.38
2023-01-29T19:12:46.665Z,12.75
2023-01-29T19:15:13.064Z,13.65
2023-01-29T19:17:39.487Z,11.57
2023-01-29T19:20:06.394Z,12.30
2023-01-29T19:22:32.781Z,13.00
2023-01-29T19:24:59.260Z,13.32
2023-01-29T19:27:30.157Z,12.27
2023-01-29T19:29:57.972Z,12.15
2023-01-29T19:32:24.343Z,11.70
2023-01-29T19:34:51.049Z,12.02
2023-01-29T19:37:17.474Z,13.23
2023-01-29T19:39:43.861Z,12.82
2023-01-29T19:42:10.279Z,12.10
2023-01-29T19:44:38.865Z,13.03
2023-01-29T19:47:05.501Z,11.98
2023-01-29T19:49:33.927Z,12.65
2023-01-29T19:52:01.121Z,12.32
2023-01-29T19:54:28.124Z,12.50
2023-01-29T19:56:54.721Z,11.37
2023-01-29T19:59:21.409Z,13.57
2023-01-29T20:01:47.950Z,13.95
2023-01-29T20:04:14.399Z,12.60
2023-01-29T20:06:40.957Z,12.95
2023-01-29T20:09:07.326Z,12.57
2023-01-29T20:11:33.836Z,11.73
2023-01-29T20:14:00.191Z,13.45
2023-01-29T20:16:26.816Z,14.13
2023-01-29T20:18:53.225Z,13.07
2023-01-29T20:21:21.903Z,12.50
2023-01-29T20:23:50.171Z,13.52
2023-01-29T20:26:17.836Z,12.98
2023-01-29T20:28:48.048Z,14.25
2023-01-29T20:31:15.461Z,13.57
2023-01-29T20:33:42.083Z,13.23
2023-01-29T20:36:10.378Z,13.43
2023-01-29T20:38:37.064Z,13.50
2023-01-29T20:41:06.569Z,14.50
2023-01-29T20:43:33.688Z,14.20
2023-01-29T20:46:00.919Z,12.60
2023-01-29T20:48:27.483Z,13.10
2023-01-29T20:50:54.224Z,13.15
2023-01-29T20:53:20.739Z,13.43
2023-01-29T20:55:47.228Z,13.57
2023-01-29T20:58:13.860Z,13.53
2023-01-29T21:00:40.233Z,13.85
2023-01-29T21:03:06.609Z,13.68
2023-01-29T21:05:32.968Z,13.80
2023-01-29T21:07:59.313Z,13.68
2023-01-29T21:10:25.666Z,13.40
2023-01-29T21:12:52.124Z,14.63
2023-01-29T21:15:18.552Z,13.63
2023-01-29T21:17:47.983Z,13.57
2023-01-29T21:20:14.925Z,14.07
2023-01-29T21:22:43.801Z,13.43
2023-01-29T21:25:11.281Z,13.27
2023-01-29T21:27:37.837Z,12.35
2023-01-29T21:30:04.827Z,13.60
2023-01-29T21:32:36.206Z,15.23
2023-01-29T21:35:02.725Z,12.30
2023-01-29T21:37:29.301Z,13.05
2023-01-29T21:39:55.681Z,14.45
2023-01-29T21:42:40.675Z,13.45
2023-01-29T21:45:07.779Z,12.45
2023-01-29T21:47:34.174Z,12.93
2023-01-29T21:50:00.564Z,13.85
2023-01-29T21:52:27.031Z,13.25
2023-01-29T21:54:53.426Z,13.93
2023-01-29T21:57:19.908Z,13.20
2023-01-29T21:59:52.478Z,13.80
2023-01-29T22:02:21.092Z,13.40
2023-01-29T22:04:47.516Z,13.20
2023-01-29T22:07:14.397Z,13.27
2023-01-29T22:09:40.992Z,13.82
2023-01-29T22:12:08.508Z,14.73
2023-01-29T22:14:34.944Z,14.35
2023-01-29T22:17:01.396Z,14.65
2023-01-29T22:19:29.340Z,14.43
2023-01-29T22:21:56.171Z,14.65
2023-01-29T22:24:23.463Z,14.23
2023-01-29T22:26:50.016Z,14.02
2023-01-29T22:29:19.594Z,14.15
2023-01-29T22:31:46.421Z,12.98
2023-01-29T22:34:14.266Z,14.07
2023-01-29T22:36:40.699Z,13.43
2023-01-29T22:39:10.382Z,12.73
2023-01-29T22:41:36.841Z,13.27
2023-01-29T22:44:03.757Z,14.32
2023-01-29T22:46:30.505Z,14.57
2023-01-29T22:48:57.170Z,13.30
2023-01-29T22:51:23.559Z,13.95
2023-01-29T22:53:51.017Z,13.30
2023-01-29T22:56:18.249Z,13.98
2023-01-29T22:58:45.092Z,12.73
2023-01-29T23:01:11.606Z,14.53
2023-01-29T23:03:38.146Z,12.88
2023-01-29T23:06:04.607Z,12.88
2023-01-29T23:08:33.230Z,14.05
2023-01-29T23:11:13.697Z,12.55
2023-01-29T23:13:45.642Z,13.37
2023-01-29T23:16:13.614Z,13.73
2023-01-29T23:18:40.783Z,14.48
2023-01-29T23:21:07.827Z,13.23
2023-01-29T23:23:36.424Z,13.20
2023-01-29T23:26:23.447Z,13.30
2023-01-29T23:28:50.148Z,12.45
2023-01-29T23:31:16.704Z,12.73
2023-01-29T23:33:43.281Z,13.50
2023-01-29T23:36:09.912Z,13.38
2023-01-29T23:38:36.409Z,12.17
2023-01-29T23:41:02.797Z,11.52
2023-01-29T23:43:30.230Z,11.88
2023-01-29T23:45:57.062Z,12.38
2023-01-29T23:48:24.222Z,11.95
2023-01-29T23:50:51.211Z,11.77
2023-01-29T23:53:18.052Z,12.10
2023-01-29T23:55:54.885Z,11.35
2023-01-29T23:58:21.248Z,12.82
